KTMA/TMA METAR and TAF weather

Enter ICAO airport designator
Station Type Date Time Source
KTMA METAR 2020/01/23 09:15 UTC NOAA

KTMA 230915Z AUTO 07005KT 10SM SCT041 BKN048 BKN060 07/M02 A3018 RMK AO2 T00651017


Station Type Date Time Source
KTMA Decoded METAR 2020/01/23 09:15 UTC NOAA

Station name not available
Jan 23, 2020 - 04:15 AM EST / 2020.01.23 0915 UTC
Wind: from the ENE (070 degrees) at 6 MPH (5 KT):0
Visibility: 10 mile(s):0
Sky conditions: mostly cloudy
Temperature: 43.7 F (6.5 C)
Dew Point: 28.9 F (-1.7 C)
Relative Humidity: 55%
Pressure (altimeter): 30.18 in. Hg (1022 hPa)
ob: KTMA 230915Z AUTO 07005KT 10SM SCT041 BKN048 BKN060 07/M02 A3018 RMK AO2 T00651017
cycle: 9

Station Type Date Time Source
KTMA TAF UTC NOAA

Error!

Example: see airport list